createdAt,value
2023-05-23T00:01:17.764Z,85.51
2023-05-23T00:03:44.391Z,86.08
2023-05-23T00:06:10.948Z,85.84
2023-05-23T00:08:37.197Z,84.90
2023-05-23T00:11:03.636Z,85.34
2023-05-23T00:13:32.748Z,85.36
2023-05-23T00:15:59.201Z,86.46
2023-05-23T00:18:25.440Z,85.69
2023-05-23T00:20:52.037Z,85.93
2023-05-23T00:23:19.996Z,86.13
2023-05-23T00:25:51.849Z,86.60
2023-05-23T00:28:18.210Z,86.72
2023-05-23T00:30:44.729Z,86.98
2023-05-23T00:33:13.618Z,87.12
2023-05-23T00:35:43.262Z,86.53
2023-05-23T00:38:10.751Z,88.16
2023-05-23T00:40:37.132Z,87.55
2023-05-23T00:43:03.245Z,87.68
2023-05-23T00:45:29.973Z,87.72
2023-05-23T00:47:58.404Z,88.16
2023-05-23T00:50:28.829Z,87.56
2023-05-23T00:52:56.993Z,87.95
2023-05-23T00:55:24.580Z,87.66
2023-05-23T00:57:54.892Z,87.39
2023-05-23T01:00:22.905Z,88.39
2023-05-23T01:02:54.139Z,87.68
2023-05-23T01:05:24.204Z,89.09
2023-05-23T01:07:51.651Z,88.66
2023-05-23T01:10:28.999Z,89.65
2023-05-23T01:13:21.219Z,89.10
2023-05-23T01:16:02.564Z,88.70
2023-05-23T01:18:45.750Z,89.14
2023-05-23T01:21:15.222Z,88.82
2023-05-23T01:24:13.755Z,89.69
2023-05-23T01:26:55.723Z,88.98
2023-05-23T01:29:26.874Z,89.27
2023-05-23T01:31:56.799Z,89.62
2023-05-23T01:34:23.096Z,89.88
2023-05-23T01:36:53.923Z,89.77
2023-05-23T01:39:20.381Z,89.99
2023-05-23T01:41:48.971Z,89.58
2023-05-23T01:44:15.672Z,90.10
2023-05-23T01:46:43.760Z,90.20
2023-05-23T01:49:12.828Z,90.94
2023-05-23T01:51:40.538Z,91.29
2023-05-23T01:54:07.171Z,91.17
2023-05-23T01:56:34.214Z,91.98
2023-05-23T01:59:01.359Z,91.83
2023-05-23T02:01:27.859Z,91.73
2023-05-23T02:03:54.892Z,92.07
2023-05-23T02:06:21.319Z,92.04
2023-05-23T02:08:47.472Z,92.35
2023-05-23T02:11:14.310Z,92.15
2023-05-23T02:13:40.504Z,91.92
2023-05-23T02:16:07.440Z,92.14
2023-05-23T02:18:37.369Z,92.85
2023-05-23T02:21:05.067Z,92.37
2023-05-23T02:23:31.228Z,92.21
2023-05-23T02:25:57.769Z,91.97
2023-05-23T02:28:24.147Z,92.44
2023-05-23T02:30:50.664Z,92.69
2023-05-23T02:33:17.186Z,92.06
2023-05-23T02:35:43.656Z,92.63
2023-05-23T02:38:10.084Z,92.28
2023-05-23T02:40:36.959Z,92.42
2023-05-23T02:43:03.692Z,92.80
2023-05-23T02:45:30.661Z,92.17
2023-05-23T02:47:57.127Z,92.60
2023-05-23T02:50:24.934Z,92.76
2023-05-23T02:52:51.282Z,92.88
2023-05-23T02:55:18.324Z,92.92
2023-05-23T02:57:47.399Z,92.10
2023-05-23T03:00:14.910Z,92.27
2023-05-23T03:02:44.317Z,91.73
2023-05-23T03:05:10.909Z,91.82
2023-05-23T03:07:37.404Z,91.62
2023-05-23T03:10:04.281Z,92.26
2023-05-23T03:12:30.421Z,92.84
2023-05-23T03:14:57.029Z,93.31
2023-05-23T03:17:25.051Z,93.30
2023-05-23T03:19:51.598Z,92.76
2023-05-23T03:22:18.945Z,92.44
2023-05-23T03:24:45.436Z,92.15
2023-05-23T03:27:11.771Z,91.93
2023-05-23T03:29:38.276Z,92.02
2023-05-23T03:32:04.931Z,92.00
2023-05-23T03:34:33.244Z,91.56
2023-05-23T03:36:59.870Z,92.84
2023-05-23T03:39:26.417Z,91.84
2023-05-23T03:41:52.613Z,91.75
2023-05-23T03:44:19.384Z,91.82
2023-05-23T03:46:45.590Z,91.69
2023-05-23T03:49:12.332Z,91.48
2023-05-23T03:51:38.560Z,91.25
2023-05-23T03:54:05.062Z,91.25
2023-05-23T03:56:31.374Z,91.51
2023-05-23T03:58:58.132Z,90.88
2023-05-23T04:01:24.484Z,90.52
2023-05-23T04:03:52.117Z,89.96
2023-05-23T04:06:19.748Z,89.96
2023-05-23T04:08:46.215Z,89.08
2023-05-23T04:11:12.535Z,89.03
2023-05-23T04:13:42.027Z,88.99
2023-05-23T04:16:10.074Z,88.14
2023-05-23T04:18:38.455Z,87.41
2023-05-23T04:21:05.800Z,87.48
2023-05-23T04:23:36.272Z,87.22
2023-05-23T04:26:02.477Z,86.70
2023-05-23T04:28:35.192Z,85.91
2023-05-23T04:31:02.524Z,86.32
2023-05-23T04:33:33.516Z,85.98
2023-05-23T04:36:03.993Z,85.91
2023-05-23T04:38:31.455Z,85.10
2023-05-23T04:40:58.033Z,84.73
2023-05-23T04:43:45.350Z,84.94
2023-05-23T04:46:25.689Z,83.52
2023-05-23T04:49:08.219Z,83.85
2023-05-23T04:51:34.574Z,83.38
2023-05-23T04:54:11.496Z,83.02
2023-05-23T04:56:37.808Z,83.03
2023-05-23T04:59:04.568Z,82.74
2023-05-23T05:01:31.036Z,83.27
2023-05-23T05:03:57.643Z,83.29
2023-05-23T05:06:24.170Z,83.10
2023-05-23T05:08:52.365Z,82.97
2023-05-23T05:11:20.212Z,82.83
2023-05-23T05:13:46.651Z,82.35
2023-05-23T05:16:14.038Z,81.72
2023-05-23T05:18:41.062Z,82.22
2023-05-23T05:21:08.192Z,82.08
2023-05-23T05:23:36.656Z,81.50
2023-05-23T05:26:04.568Z,80.23
2023-05-23T05:28:31.272Z,78.78
2023-05-23T05:30:58.511Z,71.86
2023-05-23T05:33:27.644Z,68.85
2023-05-23T05:36:05.930Z,64.54
2023-05-23T05:38:32.383Z,64.02
2023-05-23T05:40:58.680Z,64.08
2023-05-23T05:43:28.608Z,65.02
2023-05-23T05:45:54.877Z,63.14
2023-05-23T05:48:21.433Z,62.32
2023-05-23T05:50:47.683Z,60.20
2023-05-23T05:53:14.045Z,58.42
2023-05-23T05:55:40.328Z,55.93
2023-05-23T05:58:06.798Z,56.61
2023-05-23T06:00:48.245Z,56.81
2023-05-23T06:03:15.075Z,57.31
2023-05-23T06:05:51.230Z,59.58
2023-05-23T06:08:18.395Z,57.42
2023-05-23T06:10:44.887Z,56.40
2023-05-23T06:13:11.411Z,58.38
2023-05-23T06:15:38.980Z,58.43
2023-05-23T06:18:05.807Z,59.40
2023-05-23T06:20:32.287Z,59.57
2023-05-23T06:23:04.716Z,59.52
2023-05-23T06:25:31.273Z,59.40
2023-05-23T06:27:58.798Z,59.76
2023-05-23T06:30:25.112Z,59.62
2023-05-23T06:32:51.887Z,60.09
2023-05-23T06:35:18.117Z,61.25
2023-05-23T06:37:45.126Z,62.40
2023-05-23T06:40:15.620Z,63.03
2023-05-23T06:42:42.209Z,63.64
2023-05-23T06:45:18.132Z,62.12
2023-05-23T06:47:44.893Z,63.51
2023-05-23T06:50:11.599Z,62.81
2023-05-23T06:52:38.586Z,63.28
2023-05-23T06:55:05.649Z,63.69
2023-05-23T06:57:33.460Z,63.32
2023-05-23T06:59:59.667Z,63.41
2023-05-23T07:02:26.437Z,63.48
2023-05-23T07:04:53.555Z,62.92
2023-05-23T07:07:40.211Z,62.90
2023-05-23T07:10:07.257Z,60.95
2023-05-23T07:12:34.896Z,59.23
2023-05-23T07:15:01.757Z,58.97
2023-05-23T07:17:30.036Z,58.75
2023-05-23T07:19:56.302Z,58.81
2023-05-23T07:22:23.347Z,57.95
2023-05-23T07:24:49.710Z,58.49
2023-05-23T07:27:16.743Z,58.89
2023-05-23T07:29:43.423Z,59.34
2023-05-23T07:32:10.721Z,57.25
2023-05-23T07:34:37.265Z,56.59
2023-05-23T07:37:03.792Z,56.89
2023-05-23T07:39:37.781Z,56.26
2023-05-23T07:42:05.066Z,54.82
2023-05-23T07:44:31.281Z,53.92
2023-05-23T07:46:57.858Z,54.02
2023-05-23T07:49:25.024Z,53.99
2023-05-23T07:51:52.990Z,53.93
2023-05-23T07:54:19.579Z,53.45
2023-05-23T07:56:48.680Z,52.54
2023-05-23T07:59:16.013Z,53.17
2023-05-23T08:01:44.117Z,51.63
2023-05-23T08:04:13.646Z,51.93
2023-05-23T08:07:00.937Z,51.48
2023-05-23T08:09:40.691Z,51.19
2023-05-23T08:12:09.498Z,50.63
2023-05-23T08:14:49.671Z,50.32
2023-05-23T08:17:23.509Z,48.94
2023-05-23T08:19:51.199Z,49.63
2023-05-23T08:22:17.858Z,48.99
2023-05-23T08:24:44.231Z,48.77
2023-05-23T08:27:10.732Z,47.74
2023-05-23T08:29:37.754Z,47.87
2023-05-23T08:32:04.962Z,47.38
2023-05-23T08:34:31.192Z,47.36
2023-05-23T08:36:57.815Z,47.62
2023-05-23T08:39:24.553Z,46.61
2023-05-23T08:42:07.761Z,45.92
2023-05-23T08:44:34.114Z,47.54
2023-05-23T08:47:07.004Z,47.15
2023-05-23T08:49:45.289Z,47.56
2023-05-23T08:52:15.012Z,48.46
2023-05-23T08:54:45.476Z,48.68
2023-05-23T08:57:14.186Z,46.79
2023-05-23T08:59:46.310Z,48.39
2023-05-23T09:02:13.932Z,47.60
2023-05-23T09:04:40.622Z,47.13
2023-05-23T09:07:16.084Z,47.36
2023-05-23T09:09:44.347Z,47.97
2023-05-23T09:12:14.417Z,47.92
2023-05-23T09:14:41.981Z,48.59
2023-05-23T09:17:09.280Z,47.72
2023-05-23T09:19:41.367Z,46.09
2023-05-23T09:22:26.110Z,43.99
2023-05-23T09:25:00.526Z,44.30
2023-05-23T09:27:28.175Z,42.78
2023-05-23T09:29:54.300Z,43.81
2023-05-23T09:32:21.007Z,43.33
2023-05-23T09:35:04.489Z,44.27
2023-05-23T09:37:37.002Z,43.41
2023-05-23T09:40:09.378Z,44.19
2023-05-23T09:42:41.497Z,44.31
2023-05-23T09:45:08.025Z,43.55
2023-05-23T09:47:34.452Z,44.38
2023-05-23T09:50:00.753Z,45.88
2023-05-23T09:52:27.291Z,45.32
2023-05-23T09:54:53.847Z,45.56
2023-05-23T09:57:22.354Z,45.16
2023-05-23T09:59:55.700Z,45.66
2023-05-23T10:02:54.629Z,45.46
2023-05-23T10:05:30.427Z,45.60
2023-05-23T10:08:00.849Z,48.24
2023-05-23T10:10:31.129Z,47.02
2023-05-23T10:13:00.952Z,47.41
2023-05-23T10:15:34.187Z,46.37
2023-05-23T10:18:07.182Z,48.04
2023-05-23T10:20:35.412Z,46.89
2023-05-23T10:23:04.450Z,46.76
2023-05-23T10:25:30.904Z,46.88
2023-05-23T10:28:00.408Z,48.27
2023-05-23T10:30:28.527Z,48.07
2023-05-23T10:32:56.874Z,47.76
2023-05-23T10:35:47.739Z,48.21
2023-05-23T10:38:16.991Z,50.06
2023-05-23T10:40:52.005Z,50.58
2023-05-23T10:43:40.348Z,49.61
2023-05-23T10:46:12.996Z,50.73
2023-05-23T10:48:44.165Z,52.65
2023-05-23T10:51:13.711Z,53.75
2023-05-23T10:53:42.925Z,57.81
2023-05-23T10:56:11.198Z,58.90
2023-05-23T10:58:40.839Z,62.79
2023-05-23T11:01:09.073Z,66.73
2023-05-23T11:03:49.955Z,70.96
2023-05-23T11:06:44.848Z,74.67
2023-05-23T11:09:18.548Z,77.47
2023-05-23T11:11:51.859Z,79.92
2023-05-23T11:14:20.260Z,82.18
2023-05-23T11:16:48.260Z,84.33
2023-05-23T11:19:17.805Z,87.86
2023-05-23T11:21:45.668Z,90.11
2023-05-23T11:24:12.446Z,94.22
2023-05-23T11:26:38.609Z,93.27
2023-05-23T11:29:09.066Z,94.98
2023-05-23T11:31:39.781Z,91.76
2023-05-23T11:34:07.115Z,93.55
2023-05-23T11:36:34.703Z,95.19
2023-05-23T11:39:04.627Z,96.31
2023-05-23T11:41:32.875Z,96.36
2023-05-23T11:44:01.366Z,96.94
2023-05-23T11:46:28.080Z,96.96
2023-05-23T11:48:55.256Z,98.13
2023-05-23T11:51:21.783Z,100.00
2023-05-23T11:53:49.281Z,99.55
2023-05-23T11:56:16.025Z,100.00
2023-05-23T11:58:44.555Z,100.00
2023-05-23T12:01:12.300Z,99.95
2023-05-23T12:03:50.586Z,100.00
2023-05-23T12:06:21.674Z,100.00
2023-05-23T12:08:48.896Z,100.00
2023-05-23T12:11:15.682Z,100.00
2023-05-23T12:13:42.835Z,100.00
2023-05-23T12:16:10.607Z,99.50
2023-05-23T12:18:46.607Z,98.98
2023-05-23T12:21:13.781Z,99.57
2023-05-23T12:23:41.455Z,100.00
2023-05-23T12:26:09.469Z,100.00
2023-05-23T12:28:42.581Z,100.00
2023-05-23T12:31:10.267Z,100.00
2023-05-23T12:33:43.155Z,100.00
2023-05-23T12:36:10.147Z,100.00
2023-05-23T12:38:38.237Z,100.00
2023-05-23T12:41:11.187Z,100.00
2023-05-23T12:43:39.733Z,100.00
2023-05-23T12:46:09.247Z,100.00
2023-05-23T12:48:35.795Z,100.00
2023-05-23T12:51:02.796Z,100.00
2023-05-23T12:53:29.311Z,100.00
2023-05-23T12:55:55.608Z,100.00
2023-05-23T12:58:22.913Z,100.00
2023-05-23T13:00:49.180Z,100.00
2023-05-23T13:03:15.769Z,100.00
2023-05-23T13:05:42.448Z,100.00
2023-05-23T13:08:09.318Z,100.00
2023-05-23T13:10:36.258Z,100.00
2023-05-23T13:13:03.633Z,100.00
2023-05-23T13:15:30.200Z,100.00
2023-05-23T13:17:58.017Z,100.00
2023-05-23T13:20:24.522Z,100.00
2023-05-23T13:22:51.039Z,100.00
2023-05-23T13:25:17.295Z,100.00
2023-05-23T13:27:43.968Z,100.00
2023-05-23T13:30:11.506Z,100.00
2023-05-23T13:32:38.304Z,100.00
2023-05-23T13:35:05.353Z,100.00
2023-05-23T13:37:31.911Z,100.00
2023-05-23T13:39:58.289Z,100.00
2023-05-23T13:42:24.985Z,100.00
2023-05-23T13:44:51.326Z,100.00
2023-05-23T13:47:17.952Z,100.00
2023-05-23T13:49:44.357Z,100.00
2023-05-23T13:52:11.590Z,100.00
2023-05-23T13:54:38.251Z,100.00
2023-05-23T13:57:06.070Z,100.00
2023-05-23T13:59:35.525Z,100.00
2023-05-23T14:02:02.165Z,100.00
2023-05-23T14:04:28.558Z,100.00
2023-05-23T14:06:55.252Z,100.00
2023-05-23T14:09:23.222Z,100.00
2023-05-23T14:11:51.679Z,100.00
2023-05-23T14:14:18.107Z,100.00
2023-05-23T14:16:45.016Z,100.00
2023-05-23T14:19:11.765Z,100.00
2023-05-23T14:21:38.673Z,100.00
2023-05-23T14:24:05.304Z,100.00
2023-05-23T14:26:32.318Z,100.00
2023-05-23T14:28:58.863Z,100.00
2023-05-23T14:31:25.949Z,100.00
2023-05-23T14:33:52.323Z,100.00
2023-05-23T14:36:18.980Z,100.00
2023-05-23T14:38:45.996Z,100.00
2023-05-23T14:41:13.887Z,100.00
2023-05-23T14:43:40.385Z,100.00
2023-05-23T14:46:08.402Z,100.00
2023-05-23T14:48:35.343Z,100.00
2023-05-23T14:51:02.565Z,100.00
2023-05-23T14:53:28.889Z,100.00
2023-05-23T14:55:55.733Z,100.00
2023-05-23T14:58:22.737Z,100.00
2023-05-23T15:00:49.424Z,100.00
2023-05-23T15:03:15.970Z,100.00
2023-05-23T15:05:44.573Z,100.00
2023-05-23T15:08:13.373Z,100.00
2023-05-23T15:10:42.405Z,100.00
2023-05-23T15:13:08.971Z,100.00
2023-05-23T16:49:52.735Z,100.00
2023-05-23T16:52:19.981Z,100.00
2023-05-23T16:54:46.458Z,100.00
2023-05-23T16:57:13.569Z,100.00
2023-05-23T16:59:40.750Z,100.00
